Terminal Aerodrome Forecast
Issued by NWS

Home | Current Version | Previous Version | Text Only | Print | Product List | Glossary On
Versions: 1 2 3 4 5 6 7 8 9 10 11 12 13 14 15 16 17 18
000
FTUS42 KTBW 021100
TAFRSW
TAF
KRSW 021128Z 0212/0312 00000KT P6SM FEW005 SCT025 SCT050
     FM021800 28005KT P6SM VCTS FEW035CB BKN120
     FM030000 29004KT P6SM FEW030 SCT120 SCT250
     FM030200 00000KT P6SM SCT025 SCT250=

USA.gov is the U.S. government's official web portal to all federal, state and local government web resources and services.